NOTICE: Beginning in January 2020, USGS WaterWatch will be operated in a maintenance-only mode. We apologize for any inconvenience that this may cause. Please contact USGS WaterWatch if you have any questions
Choose a state:
Locations above flood stage
(64 streamgages are currently reporting water levels above the National Weather Service defined flood stage)
USGS
station
ID
USGS station name NWS
flood
stage
(ft)
Most recent
stage
(ft)
Most recent
flow
(cfs)
Historical
peaks
(cfs)
Most recent
local
date/time
NWS
station
ID
06478000JAMES R NEAR MITCHELL,SD 17 18.78 Ice 28,400 2020-01-24 10:45:00 JRMS2
06477000JAMES R NEAR FORESTBURG,SD 12 13.65 Ice 28,400 2020-01-24 10:15:00 FORS2
06476000JAMES R AT HURON,SD 11 12.00 Ice 23,400 2020-01-24 10:15:00 HURS2
06473000JAMES R AT ASHTON,SD 13 15.03 Ice 9,520 2020-01-24 10:45:00 ATNS2
02171700SANTEE RIVER NR JAMESTOWN, SC 10 14.38 28,100 96,400 2020-01-24 11:30:00 JAMS1
02489500Pearl River near Bogalusa, LA 18 21.50 53,900 133,000 2020-01-24 10:00:00 BXAL1
02225000ALTAMAHA RIVER NEAR BAXLEY, GA 12.99 15.90 37,500 230,000 2020-01-24 11:45:00 BAXG1
02492600Pearl River at Pearl River, LA 14 17.59

 

230,000 2020-01-24 10:00:00 PERL1
07290000BIG BLACK RIVER NR BOVINA, MS 28 37.00 19,000 92,300 2020-01-24 10:15:00 BOVM6
02482550PEARL RIVER NR CARTHAGE, MS 17 17.05 6,650 102,000 2020-01-24 10:45:00 CARM6
02488000PEARL RIVER AT ROCKPORT, MS 25 33.06 49,500 123,000 2020-01-24 10:30:00 ROCM6
02470050TOMBIGBEE RIVER AT STEAMPLANT NR LEROY, AL 24 27.68

 

2020-01-24 10:00:00 LRYA1
02486000PEARL RIVER AT JACKSON, MS 28 28.48 25,700 128,000 2020-01-24 10:30:00 JACM6
06466010Missouri River at Niobrara, Nebr. 21 22.58

 

  2020-01-24 10:15:00 MRNN1
02489000PEARL RIVER NR COLUMBIA, MS 17 22.39 57,300 165,000 2020-01-24 10:15:00 CLMM6
03612600OHIO RIVER AT OLMSTED 36 41.01 Rat 1,040,000 2020-01-24 10:00:00 OLMI2
02488500PEARL RIVER NR MONTICELLO, MS 22 27.910 51,800 122,000 2020-01-24 10:15:00 MTCM6
03374000WHITE RIVER AT PETERSBURG, IN 16 19.04 38,700 235,000 2020-01-24 11:30:00 PTRI3
03373980WHITE RIVER ABOVE PETERSBURG, IN 16 18.65

 

  2020-01-24 11:30:00 PETI3
03374100WHITE RIVER AT HAZLETON, IN 16 20.74 46,800 138,000 2020-01-24 11:45:00 HZNI3
03379500LITTLE WABASH RIVER BELOW CLAY CITY, IL 18 19.74 5,220 47,000 2020-01-24 10:45:00 CLAI2
07289730BIG BLACK RIVER NR BENTONIA, MS 22 25.82 13,800 86,000 2020-01-24 10:00:00 BTAM6
03342000WABASH RIVER AT RIVERTON, IN 15 19.62 44,800 250,000 2020-01-24 11:00:00 RVTI3
03346500EMBARRAS RIVER AT LAWRENCEVILLE, IL 30 32.21 12,000 47,500 2020-01-24 10:45:00 LAWI2
07072500Black River at Black Rock, AR 14 19.43 23,000 190,000 2020-01-24 10:00:00 BKRA4
03381495LITTLE WABASH RIVER AT MAIN ST AT CARMI, IL 27 33.80

 

  2020-01-24 10:30:00 CARI2
06466700LEWIS AND CLARK LAKE AT SPRINGFIELD,SD 10 11.65

 

  2020-01-24 10:15:00 SPGS2
03341500WABASH RIVER AT TERRE HAUTE, IN 16.5 17.21 27,500 245,000 2020-01-24 11:30:00 HUFI3
07074850White River near Augusta, AR 26 32.15 65,800 267,000 2020-01-24 10:00:00 AUGA4
04099750PIGEON RIVER NEAR SCOTT, IN 6 6.06 1,050 2,450 2020-01-24 11:15:00 SCOI3
03377500WABASH RIVER AT MT. CARMEL, IL 19 25.18 120,000 428,000 2020-01-24 11:45:00 MCRI2
04100222NB ELKHART RIVER AT COSPERVILLE, IN 6 6.13 359 919 2020-01-24 11:30:00 CPEI3
03378500WABASH RIVER AT NEW HARMONY, IN 15 19.34 129,000 317,000 2020-01-24 10:30:00 NHRI3
03343010WABASH RIVER AT MEMORIAL BRIDGE AT VINCENNES, IN 16 19.25 49,900 97,800 2020-01-24 11:45:00 VCNI3
05599490BIG MUDDY RIVER AT RTE 127 AT MURPHYSBORO, IL 22 23.43 8,710 42,400 2020-01-24 10:30:00 MURI2
07069000Black River at Pocahontas, AR 17 17.98 15,700 105,000 2020-01-24 10:00:00 POCA4
02198500SAVANNAH RIVER NEAR CLYO, GA 11 13.83 22,100 270,000 2020-01-24 11:15:00 CLYG1
03330500TIPPECANOE RIVER AT OSWEGO, IN 7.5 7.61 321 1,050 2020-01-24 11:45:00 OWGI3
03381700OHIO RIVER AT OLD SHAWNEETOWN, IL-KY 33 34.26 466,000 1,260,000 2020-01-24 10:30:00 SHNI2
02478500CHICKASAWHAY RIVER AT LEAKESVILLE, MS 20 25.10 20,900 125,000 2020-01-24 10:15:00 LEKM6
02358700APALACHICOLA RIVER NR BLOUNTSTOWN,FLORIDA 17 17.20 48,400 266,000 2020-01-24 10:15:00 BLOF1
07076750 White River at Georgetown, AR 21 22.01 55,900 179,000 2020-01-24 10:00:00 GEOA4
06472000JAMES R NEAR STRATFORD,SD 14 17.49 Ice 9,910 2020-01-24 10:45:00 SFDS2
07289000MISSISSIPPI RIVER AT VICKSBURG, MS 43 45.58 1,390,000 2,310,000 2020-01-24 10:00:00 VCKM6
02479000PASCAGOULA RIVER AT MERRILL, MS 22 22.29 42,400 230,000 2020-01-24 10:15:00 MRRM6
05586100ILLINOIS RIVER AT VALLEY CITY, IL 14 15.60 56,700 123,000 2020-01-24 10:00:00 VALI2
06471000JAMES R AT COLUMBIA,SD 13 15.11 Bkw 9,620 2020-01-24 10:15:00 CMBS2
02215260OCMULGEE RIVER AT ABBEVILLE, GA 12 12.13 15,500 100,000 2020-01-24 11:45:00 ABBG1
05585500ILLINOIS RIVER AT MEREDOSIA, IL 17 17.50

 

123,000 2020-01-24 10:30:00 MROI2
05587060ILLINOIS RIVER AT HARDIN, IL 25 25.21

 

  2020-01-24 10:30:00 HARI2
05552500FOX RIVER AT DAYTON, IL 12 14.10 Ice 55,400 2020-01-24 10:45:00 DAYI2
02479310PASCAGOULA RIVER AT GRAHAM FERRY, MS 16 16.12 61,600 123,000 2020-01-24 10:45:00 PGFM6
13131000ANTELOPE CREEK NR DARLINGTON, ID 6 6.53 Ice 833 2020-01-24 09:00:00 ACKI1
02224940ALTAMAHA RIVER AT US 221, NR CHARLOTTEVILLE, GA 13 15.54 37,000 210,000 2020-01-24 11:45:00 CHRG1
04066003MENOMINEE RIVER BELOW PEMENE CREEK NEAR PEMBINE,WI 15 15.29 Ice 26,900 2020-01-24 10:00:00 PBIW3
12061500SKOKOMISH RIVER NEAR POTLATCH, WA 16.5 17.69 5,260 36,600 2020-01-24 08:30:00 SRPW1
13116500MEDICINE LODGE CREEK NR SMALL ID 7.7 10.96 Ice 481 2020-01-24 09:15:00 MEDI1
05283500MISSISSIPPI RIVER AT US HWY 169 AT CHAMPLIN, MN 12 12.52 Ice 49,100 2020-01-24 10:30:00 AKAM5
07348700Bayou Dorcheat near Springhill, LA 11 11.44 1,000 36,700 2020-01-24 10:00:00 SPHL1
12035000SATSOP RIVER NEAR SATSOP, WA 38 38.68 28,500 63,600 2020-01-24 08:15:00 SATW1
07182000COTTONWOOD R AT COTTONWOOD FALLS, KS 9 9.38 394 196,000 2020-01-24 10:00:00 CTWK1
07343200Sulphur Rv nr Talco, TX 20 20.51 4,830 79,800 2020-01-24 10:45:00 TLCT2
06227600WIND RIVER NEAR KINNEAR, WY 9 9.09 Ice 16,600 2020-01-24 09:00:00 KINW4
08255500COSTILLA CREEK NEAR COSTILLA, NM 5 5.57 Ice 1,150 2020-01-24 09:45:00 COSN5